sensor_id;sensor_type;location;lat;lon;timestamp;temperature;humidity
17726;DHT22;8983;53.156;17.960;2023-02-28T00:01:12;-1.90;99.90
17726;DHT22;8983;53.156;17.960;2023-02-28T00:03:41;-2.30;99.90
17726;DHT22;8983;53.156;17.960;2023-02-28T00:08:39;-1.90;99.90
17726;DHT22;8983;53.156;17.960;2023-02-28T00:11:10;-2.20;99.90
17726;DHT22;8983;53.156;17.960;2023-02-28T00:13:41;-2.20;99.90
17726;DHT22;8983;53.156;17.960;2023-02-28T00:16:12;-2.20;99.90
17726;DHT22;8983;53.156;17.960;2023-02-28T00:18:41;-1.80;99.90
17726;DHT22;8983;53.156;17.960;2023-02-28T00:23:39;-2.30;99.90
17726;DHT22;8983;53.156;17.960;2023-02-28T00:36:04;-2.30;99.90
17726;DHT22;8983;53.156;17.960;2023-02-28T00:41:02;-2.30;99.90
17726;DHT22;8983;53.156;17.960;2023-02-28T00:43:32;-2.30;99.90
17726;DHT22;8983;53.156;17.960;2023-02-28T00:53:26;-2.40;99.90
17726;DHT22;8983;53.156;17.960;2023-02-28T00:58:24;-2.40;99.90
17726;DHT22;8983;53.156;17.960;2023-02-28T01:00:53;0.80;99.90
17726;DHT22;8983;53.156;17.960;2023-02-28T01:03:22;-2.40;99.90
17726;DHT22;8983;53.156;17.960;2023-02-28T01:15:50;-2.10;99.90
17726;DHT22;8983;53.156;17.960;2023-02-28T01:28:16;-2.30;99.90
17726;DHT22;8983;53.156;17.960;2023-02-28T01:30:49;-2.10;99.90
17726;DHT22;8983;53.156;17.960;2023-02-28T01:40:49;-2.30;99.90
17726;DHT22;8983;53.156;17.960;2023-02-28T01:43:22;-2.30;99.90
17726;DHT22;8983;53.156;17.960;2023-02-28T01:45:52;-2.30;99.90
17726;DHT22;8983;53.156;17.960;2023-02-28T01:48:23;-2.40;99.90
17726;DHT22;8983;53.156;17.960;2023-02-28T01:50:54;-2.40;99.90
17726;DHT22;8983;53.156;17.960;2023-02-28T01:53:26;-2.40;99.90
17726;DHT22;8983;53.156;17.960;2023-02-28T02:00:55;-2.50;99.90
17726;DHT22;8983;53.156;17.960;2023-02-28T02:08:22;-2.40;99.90
17726;DHT22;8983;53.156;17.960;2023-02-28T02:10:52;-2.60;99.90
17726;DHT22;8983;53.156;17.960;2023-02-28T02:16:26;-2.40;99.90
17726;DHT22;8983;53.156;17.960;2023-02-28T02:19:07;-2.50;99.90
17726;DHT22;8983;53.156;17.960;2023-02-28T02:22:01;-2.50;99.90
17726;DHT22;8983;53.156;17.960;2023-02-28T02:25:03;-2.40;99.90
17726;DHT22;8983;53.156;17.960;2023-02-28T02:28:02;-2.40;99.90
17726;DHT22;8983;53.156;17.960;2023-02-28T02:30:58;-2.20;99.90
17726;DHT22;8983;53.156;17.960;2023-02-28T02:36:58;-2.40;99.90
17726;DHT22;8983;53.156;17.960;2023-02-28T02:39:34;-2.50;99.90
17726;DHT22;8983;53.156;17.960;2023-02-28T02:42:11;-2.50;99.90
17726;DHT22;8983;53.156;17.960;2023-02-28T02:44:45;-2.70;99.90
17726;DHT22;8983;53.156;17.960;2023-02-28T02:47:16;-2.50;99.90
17726;DHT22;8983;53.156;17.960;2023-02-28T02:49:48;-2.60;99.90
17726;DHT22;8983;53.156;17.960;2023-02-28T02:52:23;-2.40;99.90
17726;DHT22;8983;53.156;17.960;2023-02-28T02:54:54;-2.90;99.90
17726;DHT22;8983;53.156;17.960;2023-02-28T02:57:29;-2.70;99.90
17726;DHT22;8983;53.156;17.960;2023-02-28T02:59:59;-2.60;99.90
17726;DHT22;8983;53.156;17.960;2023-02-28T03:02:29;-2.60;99.90
17726;DHT22;8983;53.156;17.960;2023-02-28T03:05:04;-2.60;99.90
17726;DHT22;8983;53.156;17.960;2023-02-28T03:07:35;-2.50;99.90
17726;DHT22;8983;53.156;17.960;2023-02-28T03:13:02;-2.40;99.90
17726;DHT22;8983;53.156;17.960;2023-02-28T03:15:41;-2.60;99.90
17726;DHT22;8983;53.156;17.960;2023-02-28T03:18:17;-2.70;99.90
17726;DHT22;8983;53.156;17.960;2023-02-28T03:20:53;-2.90;99.90
17726;DHT22;8983;53.156;17.960;2023-02-28T03:23:29;-2.80;99.90
17726;DHT22;8983;53.156;17.960;2023-02-28T03:26:04;-1.20;99.90
17726;DHT22;8983;53.156;17.960;2023-02-28T03:28:39;-2.70;99.90
17726;DHT22;8983;53.156;17.960;2023-02-28T03:31:15;-3.20;99.90
17726;DHT22;8983;53.156;17.960;2023-02-28T03:33:47;-2.90;99.90
17726;DHT22;8983;53.156;17.960;2023-02-28T03:36:24;-2.70;99.90
17726;DHT22;8983;53.156;17.960;2023-02-28T03:38:58;-3.10;99.90
17726;DHT22;8983;53.156;17.960;2023-02-28T03:41:32;-2.80;99.90
17726;DHT22;8983;53.156;17.960;2023-02-28T03:44:06;-2.70;99.90
17726;DHT22;8983;53.156;17.960;2023-02-28T03:46:37;-2.70;99.90
17726;DHT22;8983;53.156;17.960;2023-02-28T03:49:11;-2.90;99.90
17726;DHT22;8983;53.156;17.960;2023-02-28T03:54:15;-2.60;99.90
17726;DHT22;8983;53.156;17.960;2023-02-28T03:56:49;-2.50;99.90
17726;DHT22;8983;53.156;17.960;2023-02-28T03:59:22;-3.10;99.90
17726;DHT22;8983;53.156;17.960;2023-02-28T04:07:01;-2.60;99.90
17726;DHT22;8983;53.156;17.960;2023-02-28T04:09:31;-2.60;99.90
17726;DHT22;8983;53.156;17.960;2023-02-28T04:16:57;-2.60;99.90
17726;DHT22;8983;53.156;17.960;2023-02-28T04:19:25;0.10;99.90
17726;DHT22;8983;53.156;17.960;2023-02-28T04:21:53;-2.50;99.90
17726;DHT22;8983;53.156;17.960;2023-02-28T04:24:23;-2.60;99.90
17726;DHT22;8983;53.156;17.960;2023-02-28T04:26:54;-2.60;99.90
17726;DHT22;8983;53.156;17.960;2023-02-28T04:29:24;-2.80;99.90
17726;DHT22;8983;53.156;17.960;2023-02-28T04:34:21;-2.60;99.90
17726;DHT22;8983;53.156;17.960;2023-02-28T04:39:38;-2.70;99.90
17726;DHT22;8983;53.156;17.960;2023-02-28T04:42:07;-2.80;99.90
17726;DHT22;8983;53.156;17.960;2023-02-28T04:44:35;-2.70;99.90
17726;DHT22;8983;53.156;17.960;2023-02-28T04:47:03;-5.10;99.90
17726;DHT22;8983;53.156;17.960;2023-02-28T04:49:31;-2.90;99.90
17726;DHT22;8983;53.156;17.960;2023-02-28T04:52:00;-2.90;99.90
17726;DHT22;8983;53.156;17.960;2023-02-28T04:54:28;-2.90;99.90
17726;DHT22;8983;53.156;17.960;2023-02-28T04:56:56;-3.20;99.90
17726;DHT22;8983;53.156;17.960;2023-02-28T04:59:26;-2.80;99.90
17726;DHT22;8983;53.156;17.960;2023-02-28T05:01:54;-3.00;99.90
17726;DHT22;8983;53.156;17.960;2023-02-28T05:06:50;-2.80;99.90
17726;DHT22;8983;53.156;17.960;2023-02-28T05:16:44;-3.00;99.90
17726;DHT22;8983;53.156;17.960;2023-02-28T05:24:11;-2.90;99.90
17726;DHT22;8983;53.156;17.960;2023-02-28T05:26:42;-2.90;99.90
17726;DHT22;8983;53.156;17.960;2023-02-28T05:39:08;-3.10;99.90
17726;DHT22;8983;53.156;17.960;2023-02-28T05:54:07;-3.00;99.90
17726;DHT22;8983;53.156;17.960;2023-02-28T06:04:05;-3.00;99.90
17726;DHT22;8983;53.156;17.960;2023-02-28T06:09:06;-2.90;99.90
17726;DHT22;8983;53.156;17.960;2023-02-28T06:11:34;-2.90;99.90
17726;DHT22;8983;53.156;17.960;2023-02-28T06:14:03;-2.90;99.90
17726;DHT22;8983;53.156;17.960;2023-02-28T06:16:33;-2.80;99.90
17726;DHT22;8983;53.156;17.960;2023-02-28T06:19:03;-2.80;99.90
17726;DHT22;8983;53.156;17.960;2023-02-28T06:21:31;-2.80;99.90
17726;DHT22;8983;53.156;17.960;2023-02-28T06:24:01;-2.80;99.90
17726;DHT22;8983;53.156;17.960;2023-02-28T06:26:29;-2.80;99.90
17726;DHT22;8983;53.156;17.960;2023-02-28T06:28:57;-2.70;99.90
17726;DHT22;8983;53.156;17.960;2023-02-28T06:31:27;-2.80;99.90
17726;DHT22;8983;53.156;17.960;2023-02-28T06:33:56;-2.70;99.90
17726;DHT22;8983;53.156;17.960;2023-02-28T06:36:24;-2.70;99.90
17726;DHT22;8983;53.156;17.960;2023-02-28T06:38:52;-2.60;99.90
17726;DHT22;8983;53.156;17.960;2023-02-28T06:41:25;-2.60;99.90
17726;DHT22;8983;53.156;17.960;2023-02-28T06:43:54;-2.60;99.90
17726;DHT22;8983;53.156;17.960;2023-02-28T06:46:23;-2.60;99.90
17726;DHT22;8983;53.156;17.960;2023-02-28T06:48:51;-2.50;99.90
17726;DHT22;8983;53.156;17.960;2023-02-28T06:51:20;-2.50;99.90
17726;DHT22;8983;53.156;17.960;2023-02-28T06:53:49;-2.50;99.90
17726;DHT22;8983;53.156;17.960;2023-02-28T06:56:17;-2.40;99.90
17726;DHT22;8983;53.156;17.960;2023-02-28T06:58:49;-2.40;99.90
17726;DHT22;8983;53.156;17.960;2023-02-28T07:01:19;-2.40;99.90
17726;DHT22;8983;53.156;17.960;2023-02-28T07:03:49;-2.30;99.90
17726;DHT22;8983;53.156;17.960;2023-02-28T07:06:19;-2.30;99.90
17726;DHT22;8983;53.156;17.960;2023-02-28T07:08:49;-2.20;99.90
17726;DHT22;8983;53.156;17.960;2023-02-28T07:11:18;-2.30;99.90
17726;DHT22;8983;53.156;17.960;2023-02-28T07:13:48;-2.20;99.90
17726;DHT22;8983;53.156;17.960;2023-02-28T07:16:16;-2.10;99.90
17726;DHT22;8983;53.156;17.960;2023-02-28T07:18:44;-2.10;99.90
17726;DHT22;8983;53.156;17.960;2023-02-28T07:21:12;-2.00;99.90
17726;DHT22;8983;53.156;17.960;2023-02-28T07:23:40;-2.00;99.90
17726;DHT22;8983;53.156;17.960;2023-02-28T07:26:13;-1.90;99.90
17726;DHT22;8983;53.156;17.960;2023-02-28T07:28:42;-1.90;99.90
17726;DHT22;8983;53.156;17.960;2023-02-28T07:31:12;-1.80;99.90
17726;DHT22;8983;53.156;17.960;2023-02-28T07:33:42;-1.80;99.90
17726;DHT22;8983;53.156;17.960;2023-02-28T07:36:12;-1.70;99.90
17726;DHT22;8983;53.156;17.960;2023-02-28T07:38:42;-1.60;99.90
17726;DHT22;8983;53.156;17.960;2023-02-28T07:41:14;-1.60;99.90
17726;DHT22;8983;53.156;17.960;2023-02-28T07:43:42;-1.50;99.90
17726;DHT22;8983;53.156;17.960;2023-02-28T07:46:14;-1.50;99.90
17726;DHT22;8983;53.156;17.960;2023-02-28T07:48:43;-1.40;99.90
17726;DHT22;8983;53.156;17.960;2023-02-28T07:51:12;-1.40;99.90
17726;DHT22;8983;53.156;17.960;2023-02-28T07:53:40;-1.30;99.90
17726;DHT22;8983;53.156;17.960;2023-02-28T07:56:09;-1.20;99.90
17726;DHT22;8983;53.156;17.960;2023-02-28T07:58:37;-1.20;99.90
17726;DHT22;8983;53.156;17.960;2023-02-28T08:01:07;-1.20;99.90
17726;DHT22;8983;53.156;17.960;2023-02-28T08:03:37;-1.10;99.90
17726;DHT22;8983;53.156;17.960;2023-02-28T08:06:06;-1.00;99.90
17726;DHT22;8983;53.156;17.960;2023-02-28T08:08:35;-0.80;99.90
17726;DHT22;8983;53.156;17.960;2023-02-28T08:11:03;-0.90;99.90
17726;DHT22;8983;53.156;17.960;2023-02-28T08:13:31;-0.90;99.90
17726;DHT22;8983;53.156;17.960;2023-02-28T08:16:01;-0.80;99.90
17726;DHT22;8983;53.156;17.960;2023-02-28T08:18:29;-0.80;99.90
17726;DHT22;8983;53.156;17.960;2023-02-28T08:20:59;-0.70;99.90
17726;DHT22;8983;53.156;17.960;2023-02-28T08:23:27;-0.70;99.90
17726;DHT22;8983;53.156;17.960;2023-02-28T08:25:55;-0.60;99.90
17726;DHT22;8983;53.156;17.960;2023-02-28T08:28:24;-0.60;99.90
17726;DHT22;8983;53.156;17.960;2023-02-28T08:30:53;-0.60;99.90
17726;DHT22;8983;53.156;17.960;2023-02-28T08:33:22;-0.50;99.90
17726;DHT22;8983;53.156;17.960;2023-02-28T08:35:52;-0.50;99.90
17726;DHT22;8983;53.156;17.960;2023-02-28T08:38:23;-0.40;99.90
17726;DHT22;8983;53.156;17.960;2023-02-28T08:40:57;-0.40;99.90
17726;DHT22;8983;53.156;17.960;2023-02-28T08:43:27;-0.40;99.90
17726;DHT22;8983;53.156;17.960;2023-02-28T08:45:55;-0.30;99.90
17726;DHT22;8983;53.156;17.960;2023-02-28T08:48:24;-0.30;99.90
17726;DHT22;8983;53.156;17.960;2023-02-28T08:50:56;-0.30;99.90
17726;DHT22;8983;53.156;17.960;2023-02-28T08:53:35;-0.20;99.90
17726;DHT22;8983;53.156;17.960;2023-02-28T08:56:05;-0.20;99.90
17726;DHT22;8983;53.156;17.960;2023-02-28T08:58:34;-0.10;99.90
17726;DHT22;8983;53.156;17.960;2023-02-28T09:01:08;-0.10;99.90
17726;DHT22;8983;53.156;17.960;2023-02-28T09:03:37;0.00;99.90
17726;DHT22;8983;53.156;17.960;2023-02-28T09:06:05;0.00;99.90
17726;DHT22;8983;53.156;17.960;2023-02-28T09:08:35;0.10;99.90
17726;DHT22;8983;53.156;17.960;2023-02-28T09:11:04;0.10;99.90
17726;DHT22;8983;53.156;17.960;2023-02-28T09:13:32;0.20;99.90
17726;DHT22;8983;53.156;17.960;2023-02-28T09:16:02;0.20;99.90
17726;DHT22;8983;53.156;17.960;2023-02-28T09:18:30;0.30;99.90
17726;DHT22;8983;53.156;17.960;2023-02-28T09:20:59;0.30;99.90
17726;DHT22;8983;53.156;17.960;2023-02-28T09:23:27;0.30;99.90
17726;DHT22;8983;53.156;17.960;2023-02-28T09:25:56;0.40;99.90
17726;DHT22;8983;53.156;17.960;2023-02-28T09:28:25;0.40;99.90
17726;DHT22;8983;53.156;17.960;2023-02-28T09:30:54;0.50;99.90
17726;DHT22;8983;53.156;17.960;2023-02-28T09:33:24;0.70;99.90
17726;DHT22;8983;53.156;17.960;2023-02-28T09:35:58;0.60;99.90
17726;DHT22;8983;53.156;17.960;2023-02-28T09:38:27;0.60;99.90
17726;DHT22;8983;53.156;17.960;2023-02-28T09:40:58;0.70;99.90
17726;DHT22;8983;53.156;17.960;2023-02-28T09:43:29;0.70;99.90
17726;DHT22;8983;53.156;17.960;2023-02-28T09:46:08;0.80;99.90
17726;DHT22;8983;53.156;17.960;2023-02-28T09:48:42;0.70;99.90
17726;DHT22;8983;53.156;17.960;2023-02-28T09:51:16;0.80;99.90
17726;DHT22;8983;53.156;17.960;2023-02-28T09:53:49;0.90;99.90
17726;DHT22;8983;53.156;17.960;2023-02-28T09:56:32;1.10;99.90
17726;DHT22;8983;53.156;17.960;2023-02-28T09:59:03;1.00;99.90
17726;DHT22;8983;53.156;17.960;2023-02-28T10:01:38;1.00;99.90
17726;DHT22;8983;53.156;17.960;2023-02-28T10:04:12;1.20;99.90
17726;DHT22;8983;53.156;17.960;2023-02-28T10:06:47;1.40;99.90
17726;DHT22;8983;53.156;17.960;2023-02-28T10:09:19;1.70;99.90
17726;DHT22;8983;53.156;17.960;2023-02-28T10:11:54;2.00;99.90
17726;DHT22;8983;53.156;17.960;2023-02-28T10:14:26;2.30;99.90
17726;DHT22;8983;53.156;17.960;2023-02-28T10:16:58;2.60;99.90
17726;DHT22;8983;53.156;17.960;2023-02-28T10:19:31;3.00;99.90
17726;DHT22;8983;53.156;17.960;2023-02-28T10:22:04;3.30;99.90
17726;DHT22;8983;53.156;17.960;2023-02-28T10:24:40;3.70;99.90
17726;DHT22;8983;53.156;17.960;2023-02-28T10:27:14;4.00;99.90
17726;DHT22;8983;53.156;17.960;2023-02-28T10:29:44;4.50;99.90
17726;DHT22;8983;53.156;17.960;2023-02-28T10:32:14;4.50;99.90
17726;DHT22;8983;53.156;17.960;2023-02-28T10:34:44;4.70;99.90
17726;DHT22;8983;53.156;17.960;2023-02-28T10:37:13;4.90;99.90
17726;DHT22;8983;53.156;17.960;2023-02-28T10:39:43;5.00;99.90
17726;DHT22;8983;53.156;17.960;2023-02-28T10:42:24;5.20;99.90
17726;DHT22;8983;53.156;17.960;2023-02-28T10:45:10;5.30;99.90
17726;DHT22;8983;53.156;17.960;2023-02-28T10:47:52;5.50;99.90
17726;DHT22;8983;53.156;17.960;2023-02-28T10:50:33;5.70;99.90
17726;DHT22;8983;53.156;17.960;2023-02-28T10:53:23;5.80;99.90
17726;DHT22;8983;53.156;17.960;2023-02-28T10:56:00;6.00;99.90
17726;DHT22;8983;53.156;17.960;2023-02-28T10:58:34;6.00;99.90
17726;DHT22;8983;53.156;17.960;2023-02-28T11:01:14;6.00;99.90
17726;DHT22;8983;53.156;17.960;2023-02-28T11:03:43;6.10;99.90
17726;DHT22;8983;53.156;17.960;2023-02-28T11:06:16;6.20;99.90
17726;DHT22;8983;53.156;17.960;2023-02-28T11:08:50;6.40;99.90
17726;DHT22;8983;53.156;17.960;2023-02-28T11:11:20;6.30;99.90
17726;DHT22;8983;53.156;17.960;2023-02-28T11:13:54;6.60;99.90
17726;DHT22;8983;53.156;17.960;2023-02-28T11:16:32;6.70;99.90
17726;DHT22;8983;53.156;17.960;2023-02-28T11:19:02;7.00;99.90
17726;DHT22;8983;53.156;17.960;2023-02-28T11:21:32;7.10;99.90
17726;DHT22;8983;53.156;17.960;2023-02-28T11:24:05;7.30;99.90
17726;DHT22;8983;53.156;17.960;2023-02-28T11:26:42;7.30;99.90
17726;DHT22;8983;53.156;17.960;2023-02-28T11:29:21;7.20;99.90
17726;DHT22;8983;53.156;17.960;2023-02-28T11:32:12;7.30;99.90
17726;DHT22;8983;53.156;17.960;2023-02-28T11:34:41;7.30;99.90
17726;DHT22;8983;53.156;17.960;2023-02-28T11:37:12;7.30;99.90
17726;DHT22;8983;53.156;17.960;2023-02-28T11:39:41;7.30;99.90
17726;DHT22;8983;53.156;17.960;2023-02-28T11:42:28;7.60;99.90
17726;DHT22;8983;53.156;17.960;2023-02-28T11:45:14;7.50;99.90
17726;DHT22;8983;53.156;17.960;2023-02-28T11:47:48;7.70;99.90
17726;DHT22;8983;53.156;17.960;2023-02-28T11:50:45;7.90;99.90
17726;DHT22;8983;53.156;17.960;2023-02-28T11:53:22;8.10;99.90
17726;DHT22;8983;53.156;17.960;2023-02-28T11:55:58;8.20;99.90
17726;DHT22;8983;53.156;17.960;2023-02-28T11:58:36;8.20;99.90
17726;DHT22;8983;53.156;17.960;2023-02-28T12:01:17;8.20;99.90
17726;DHT22;8983;53.156;17.960;2023-02-28T12:03:59;8.30;99.90
17726;DHT22;8983;53.156;17.960;2023-02-28T12:06:36;8.40;99.90
17726;DHT22;8983;53.156;17.960;2023-02-28T12:09:27;8.40;99.90
17726;DHT22;8983;53.156;17.960;2023-02-28T12:12:01;8.40;99.90
17726;DHT22;8983;53.156;17.960;2023-02-28T12:14:46;8.50;99.90
17726;DHT22;8983;53.156;17.960;2023-02-28T12:17:26;8.60;99.90
17726;DHT22;8983;53.156;17.960;2023-02-28T12:20:05;8.60;99.90
17726;DHT22;8983;53.156;17.960;2023-02-28T12:22:40;8.70;99.90
17726;DHT22;8983;53.156;17.960;2023-02-28T12:25:39;8.90;99.60
17726;DHT22;8983;53.156;17.960;2023-02-28T12:28:13;9.10;99.00
17726;DHT22;8983;53.156;17.960;2023-02-28T12:30:49;9.40;98.90
17726;DHT22;8983;53.156;17.960;2023-02-28T12:33:24;9.50;98.30
17726;DHT22;8983;53.156;17.960;2023-02-28T12:35:54;9.50;97.60
17726;DHT22;8983;53.156;17.960;2023-02-28T12:38:27;9.60;97.40
17726;DHT22;8983;53.156;17.960;2023-02-28T12:40:59;9.90;97.00
17726;DHT22;8983;53.156;17.960;2023-02-28T12:43:32;9.90;96.50
17726;DHT22;8983;53.156;17.960;2023-02-28T12:46:04;10.10;96.20
17726;DHT22;8983;53.156;17.960;2023-02-28T12:48:41;10.20;95.80
17726;DHT22;8983;53.156;17.960;2023-02-28T12:51:10;10.20;95.10
17726;DHT22;8983;53.156;17.960;2023-02-28T12:53:49;10.40;94.70
17726;DHT22;8983;53.156;17.960;2023-02-28T12:56:29;10.10;94.10
17726;DHT22;8983;53.156;17.960;2023-02-28T12:59:02;10.10;93.80
17726;DHT22;8983;53.156;17.960;2023-02-28T13:01:49;10.20;93.60
17726;DHT22;8983;53.156;17.960;2023-02-28T13:04:57;10.20;93.10
17726;DHT22;8983;53.156;17.960;2023-02-28T13:07:49;10.30;92.70
17726;DHT22;8983;53.156;17.960;2023-02-28T13:10:20;10.20;92.40
17726;DHT22;8983;53.156;17.960;2023-02-28T13:12:50;10.20;92.30
17726;DHT22;8983;53.156;17.960;2023-02-28T13:15:23;10.30;91.90
17726;DHT22;8983;53.156;17.960;2023-02-28T13:17:53;10.30;91.40
17726;DHT22;8983;53.156;17.960;2023-02-28T13:20:26;10.20;90.90
17726;DHT22;8983;53.156;17.960;2023-02-28T13:22:55;10.20;90.60
17726;DHT22;8983;53.156;17.960;2023-02-28T13:25:51;10.20;90.50
17726;DHT22;8983;53.156;17.960;2023-02-28T13:34:41;10.50;87.80
17726;DHT22;8983;53.156;17.960;2023-02-28T13:37:35;10.40;87.60
17726;DHT22;8983;53.156;17.960;2023-02-28T13:40:28;10.50;87.20
17726;DHT22;8983;53.156;17.960;2023-02-28T13:42:56;10.60;87.30
17726;DHT22;8983;53.156;17.960;2023-02-28T13:45:28;10.70;87.50
17726;DHT22;8983;53.156;17.960;2023-02-28T13:48:04;10.80;87.10
17726;DHT22;8983;53.156;17.960;2023-02-28T13:50:35;10.90;86.90
17726;DHT22;8983;53.156;17.960;2023-02-28T13:56:34;10.90;85.60
17726;DHT22;8983;53.156;17.960;2023-02-28T13:59:19;10.90;85.20
17726;DHT22;8983;53.156;17.960;2023-02-28T14:05:01;11.00;83.40
17726;DHT22;8983;53.156;17.960;2023-02-28T14:07:33;10.90;83.00
17726;DHT22;8983;53.156;17.960;2023-02-28T14:10:07;11.00;82.00
17726;DHT22;8983;53.156;17.960;2023-02-28T14:13:01;11.00;81.20
17726;DHT22;8983;53.156;17.960;2023-02-28T14:15:54;10.90;80.30
17726;DHT22;8983;53.156;17.960;2023-02-28T14:18:29;10.90;80.00
17726;DHT22;8983;53.156;17.960;2023-02-28T14:21:02;10.80;80.20
17726;DHT22;8983;53.156;17.960;2023-02-28T14:24:11;10.80;79.80
17726;DHT22;8983;53.156;17.960;2023-02-28T14:27:05;10.70;78.80
17726;DHT22;8983;53.156;17.960;2023-02-28T14:32:41;10.40;78.50
17726;DHT22;8983;53.156;17.960;2023-02-28T14:35:21;10.30;78.50
17726;DHT22;8983;53.156;17.960;2023-02-28T14:37:52;10.10;78.00
17726;DHT22;8983;53.156;17.960;2023-02-28T14:40:27;10.00;77.60
17726;DHT22;8983;53.156;17.960;2023-02-28T14:42:57;9.80;76.90
17726;DHT22;8983;53.156;17.960;2023-02-28T14:45:30;9.80;76.60
17726;DHT22;8983;53.156;17.960;2023-02-28T14:47:59;9.70;76.40
17726;DHT22;8983;53.156;17.960;2023-02-28T14:50:31;9.80;76.50
17726;DHT22;8983;53.156;17.960;2023-02-28T14:52:59;9.90;76.50
17726;DHT22;8983;53.156;17.960;2023-02-28T14:55:29;10.00;76.50
17726;DHT22;8983;53.156;17.960;2023-02-28T14:58:00;9.90;75.90
17726;DHT22;8983;53.156;17.960;2023-02-28T15:00:31;10.10;75.70
17726;DHT22;8983;53.156;17.960;2023-02-28T15:03:01;9.90;75.40
17726;DHT22;8983;53.156;17.960;2023-02-28T15:05:52;9.90;75.20
17726;DHT22;8983;53.156;17.960;2023-02-28T15:08:20;10.00;75.20
17726;DHT22;8983;53.156;17.960;2023-02-28T15:10:54;10.00;74.90
17726;DHT22;8983;53.156;17.960;2023-02-28T15:13:23;9.90;74.70
17726;DHT22;8983;53.156;17.960;2023-02-28T15:15:57;9.90;74.80
17726;DHT22;8983;53.156;17.960;2023-02-28T15:18:33;9.80;75.00
17726;DHT22;8983;53.156;17.960;2023-02-28T15:21:07;9.80;76.30
17726;DHT22;8983;53.156;17.960;2023-02-28T15:23:36;9.60;75.60
17726;DHT22;8983;53.156;17.960;2023-02-28T15:26:05;9.20;75.90
17726;DHT22;8983;53.156;17.960;2023-02-28T15:28:33;8.90;77.40
17726;DHT22;8983;53.156;17.960;2023-02-28T15:31:19;8.60;77.30
17726;DHT22;8983;53.156;17.960;2023-02-28T15:33:53;8.20;78.30
17726;DHT22;8983;53.156;17.960;2023-02-28T15:36:25;7.90;79.00
17726;DHT22;8983;53.156;17.960;2023-02-28T15:38:55;7.60;79.60
17726;DHT22;8983;53.156;17.960;2023-02-28T15:41:36;7.40;80.10
17726;DHT22;8983;53.156;17.960;2023-02-28T15:44:17;7.10;80.60
17726;DHT22;8983;53.156;17.960;2023-02-28T15:47:00;6.90;81.20
17726;DHT22;8983;53.156;17.960;2023-02-28T15:49:34;6.80;81.80
17726;DHT22;8983;53.156;17.960;2023-02-28T15:52:14;6.60;82.00
17726;DHT22;8983;53.156;17.960;2023-02-28T15:54:44;6.40;82.40
17726;DHT22;8983;53.156;17.960;2023-02-28T15:57:16;6.20;82.70
17726;DHT22;8983;53.156;17.960;2023-02-28T15:59:50;6.20;83.20
17726;DHT22;8983;53.156;17.960;2023-02-28T16:02:22;6.10;83.50
17726;DHT22;8983;53.156;17.960;2023-02-28T16:05:02;6.00;83.90
17726;DHT22;8983;53.156;17.960;2023-02-28T16:07:30;5.90;84.30
17726;DHT22;8983;53.156;17.960;2023-02-28T16:09:59;5.80;84.80
17726;DHT22;8983;53.156;17.960;2023-02-28T16:12:29;5.70;85.10
17726;DHT22;8983;53.156;17.960;2023-02-28T16:14:59;5.60;85.50
17726;DHT22;8983;53.156;17.960;2023-02-28T16:17:33;5.50;85.90
17726;DHT22;8983;53.156;17.960;2023-02-28T16:20:11;5.30;86.20
17726;DHT22;8983;53.156;17.960;2023-02-28T16:22:40;5.30;86.60
17726;DHT22;8983;53.156;17.960;2023-02-28T16:25:12;5.10;87.00
17726;DHT22;8983;53.156;17.960;2023-02-28T16:27:40;5.20;87.60
17726;DHT22;8983;53.156;17.960;2023-02-28T16:30:15;4.90;87.80
17726;DHT22;8983;53.156;17.960;2023-02-28T16:32:47;4.80;88.20
17726;DHT22;8983;53.156;17.960;2023-02-28T16:35:15;4.70;88.60
17726;DHT22;8983;53.156;17.960;2023-02-28T16:37:45;4.50;88.80
17726;DHT22;8983;53.156;17.960;2023-02-28T16:40:17;4.50;89.20
17726;DHT22;8983;53.156;17.960;2023-02-28T16:42:49;4.30;89.50
17726;DHT22;8983;53.156;17.960;2023-02-28T16:45:20;4.20;89.90
17726;DHT22;8983;53.156;17.960;2023-02-28T16:47:51;4.10;90.10
17726;DHT22;8983;53.156;17.960;2023-02-28T16:50:21;4.20;90.40
17726;DHT22;8983;53.156;17.960;2023-02-28T16:52:50;3.90;90.50
17726;DHT22;8983;53.156;17.960;2023-02-28T16:55:21;3.80;90.70
17726;DHT22;8983;53.156;17.960;2023-02-28T16:57:52;3.80;90.90
17726;DHT22;8983;53.156;17.960;2023-02-28T17:00:21;3.70;91.10
17726;DHT22;8983;53.156;17.960;2023-02-28T17:02:51;3.60;91.20
17726;DHT22;8983;53.156;17.960;2023-02-28T17:05:20;3.60;91.40
17726;DHT22;8983;53.156;17.960;2023-02-28T17:07:49;3.40;91.50
17726;DHT22;8983;53.156;17.960;2023-02-28T17:10:19;3.40;91.70
17726;DHT22;8983;53.156;17.960;2023-02-28T17:12:48;3.40;91.80
17726;DHT22;8983;53.156;17.960;2023-02-28T17:15:18;3.20;91.90
17726;DHT22;8983;53.156;17.960;2023-02-28T17:17:48;3.10;92.00
17726;DHT22;8983;53.156;17.960;2023-02-28T17:20:19;3.00;92.10
17726;DHT22;8983;53.156;17.960;2023-02-28T17:22:49;2.90;92.30
17726;DHT22;8983;53.156;17.960;2023-02-28T17:25:18;2.90;92.50
17726;DHT22;8983;53.156;17.960;2023-02-28T17:27:46;3.10;92.70
17726;DHT22;8983;53.156;17.960;2023-02-28T17:30:17;2.90;92.80
17726;DHT22;8983;53.156;17.960;2023-02-28T17:32:46;3.50;93.20
17726;DHT22;8983;53.156;17.960;2023-02-28T17:35:14;2.60;93.20
17726;DHT22;8983;53.156;17.960;2023-02-28T17:37:44;3.00;93.30
17726;DHT22;8983;53.156;17.960;2023-02-28T17:40:14;2.90;93.50
17726;DHT22;8983;53.156;17.960;2023-02-28T17:42:42;2.50;93.50
17726;DHT22;8983;53.156;17.960;2023-02-28T17:45:11;2.50;93.70
17726;DHT22;8983;53.156;17.960;2023-02-28T17:47:40;2.30;93.80
17726;DHT22;8983;53.156;17.960;2023-02-28T17:50:12;2.30;94.00
17726;DHT22;8983;53.156;17.960;2023-02-28T17:52:41;2.30;94.10
17726;DHT22;8983;53.156;17.960;2023-02-28T17:55:11;2.30;94.30
17726;DHT22;8983;53.156;17.960;2023-02-28T17:57:40;2.10;94.40
17726;DHT22;8983;53.156;17.960;2023-02-28T18:00:12;2.10;94.60
17726;DHT22;8983;53.156;17.960;2023-02-28T18:02:42;2.00;94.80
17726;DHT22;8983;53.156;17.960;2023-02-28T18:05:11;2.00;94.90
17726;DHT22;8983;53.156;17.960;2023-02-28T18:07:40;2.00;95.00
17726;DHT22;8983;53.156;17.960;2023-02-28T18:10:14;2.00;95.10
17726;DHT22;8983;53.156;17.960;2023-02-28T18:12:46;2.10;95.30
17726;DHT22;8983;53.156;17.960;2023-02-28T18:15:15;1.80;95.40
17726;DHT22;8983;53.156;17.960;2023-02-28T18:17:43;1.80;95.50
17726;DHT22;8983;53.156;17.960;2023-02-28T18:20:11;1.70;95.70
17726;DHT22;8983;53.156;17.960;2023-02-28T18:22:41;1.70;96.00
17726;DHT22;8983;53.156;17.960;2023-02-28T18:25:11;1.60;96.10
17726;DHT22;8983;53.156;17.960;2023-02-28T18:27:40;1.60;96.20
17726;DHT22;8983;53.156;17.960;2023-02-28T18:30:19;1.90;96.50
17726;DHT22;8983;53.156;17.960;2023-02-28T18:32:48;1.50;96.40
17726;DHT22;8983;53.156;17.960;2023-02-28T18:35:16;1.40;96.60
17726;DHT22;8983;53.156;17.960;2023-02-28T18:38:05;1.40;96.80
17726;DHT22;8983;53.156;17.960;2023-02-28T18:40:35;1.30;97.00
17726;DHT22;8983;53.156;17.960;2023-02-28T18:43:04;1.30;97.10
17726;DHT22;8983;53.156;17.960;2023-02-28T18:45:35;1.30;97.20
17726;DHT22;8983;53.156;17.960;2023-02-28T18:48:04;1.30;97.40